Time;durP1;ratioP1;P1;durP2;ratioP2;P2;SDS_P1;SDS_P2;PMS_P1;PMS_P2;Temp;Humidity;BMP_temperature;BMP_pressure;BME280_temperature;BME280_humidity;BME280_pressure;Samples;Min_cycle;Max_cycle;Signal;HPM_P1;HPM_P2
2022/12/29 00:01:25;;;;;;;11.40;6.05;;;1.10;99.90;;;;;;4900785;29;20043;-71
2022/12/29 00:03:51;;;;;;;8.35;6.18;;;1.00;99.90;;;;;;4912717;29;20146;-71
2022/12/29 00:06:16;;;;;;;11.45;6.70;;;1.00;99.90;;;;;;4910176;29;20769;-71
2022/12/29 00:08:42;;;;;;;9.75;6.80;;;1.10;99.90;;;;;;4909514;29;20939;-71
2022/12/29 00:11:15;;;;;;;11.00;6.40;;;1.10;99.90;;;;;;4908847;29;21433;-71
2022/12/29 00:16:26;;;;;;;11.15;6.88;;;1.30;99.90;;;;;;4912615;29;20123;-71
2022/12/29 00:18:52;;;;;;;10.20;6.78;;;1.40;99.90;;;;;;4910646;29;20464;-71
2022/12/29 00:35:35;;;;;;;11.27;6.05;;;1.10;99.90;;;;;;4908725;29;20071;-71
2022/12/29 00:46:17;;;;;;;10.07;6.10;;;0.90;99.90;;;;;;4909980;29;20496;-70
2022/12/29 00:51:28;;;;;;;9.57;6.80;;;0.90;99.90;;;;;;4899032;29;21265;-70
2022/12/29 00:53:53;;;;;;;8.75;5.70;;;0.90;99.90;;;;;;4900237;29;20040;-70
2022/12/29 00:56:19;;;;;;;9.70;5.85;;;0.90;99.90;;;;;;4902048;29;20803;-70
2022/12/29 00:58:45;;;;;;;11.32;6.65;;;0.80;99.90;;;;;;4915526;29;20390;-70
2022/12/29 01:01:11;;;;;;;10.90;5.75;;;0.70;99.90;;;;;;4907288;29;20063;-70
2022/12/29 01:03:37;;;;;;;7.88;5.05;;;0.70;99.90;;;;;;4910651;29;20079;-70
2022/12/29 01:06:05;;;;;;;9.93;5.50;;;0.70;99.90;;;;;;4906659;29;20693;-70
2022/12/29 01:08:31;;;;;;;10.20;6.28;;;0.70;99.90;;;;;;4912680;29;20036;-75
2022/12/29 01:11:05;;;;;;;8.63;5.68;;;0.70;99.90;;;;;;4915041;29;20050;-75
2022/12/29 01:13:30;;;;;;;9.73;5.72;;;0.80;99.90;;;;;;4914365;29;20059;-73
2022/12/29 01:15:56;;;;;;;11.05;6.05;;;0.80;99.90;;;;;;4914328;29;20150;-74
2022/12/29 01:18:24;;;;;;;8.73;5.97;;;0.80;99.90;;;;;;4913534;29;20067;-75
2022/12/29 01:20:50;;;;;;;10.00;5.72;;;0.80;99.90;;;;;;4896246;29;20055;-77
2022/12/29 01:23:15;;;;;;;9.82;5.90;;;0.80;99.90;;;;;;4909423;29;20785;-77
2022/12/29 01:25:41;;;;;;;7.35;4.95;;;0.90;99.90;;;;;;4904779;29;20137;-76
2022/12/29 01:28:08;;;;;;;7.88;5.60;;;1.00;99.90;;;;;;4909127;29;20044;-70
2022/12/29 01:30:35;;;;;;;10.85;5.60;;;1.00;99.90;;;;;;4914488;29;20019;-68
2022/12/29 01:33:01;;;;;;;10.60;6.30;;;1.10;99.90;;;;;;4908878;29;20202;-68
2022/12/29 01:35:26;;;;;;;12.18;7.38;;;1.20;99.90;;;;;;4896737;29;20047;-68
2022/12/29 01:37:52;;;;;;;11.18;6.43;;;1.30;99.90;;;;;;4905192;29;20035;-68
2022/12/29 01:40:18;;;;;;;8.32;5.55;;;1.30;99.90;;;;;;4911086;29;20511;-69
2022/12/29 01:42:43;;;;;;;9.57;5.78;;;1.30;99.90;;;;;;4909459;29;20044;-69
2022/12/29 01:45:14;;;;;;;8.52;6.00;;;1.20;99.90;;;;;;4914997;29;20051;-69
2022/12/29 01:48:04;;;;;;;9.00;5.13;;;1.20;99.90;;;;;;4914819;29;20036;-69
2022/12/29 01:50:33;;;;;;;7.32;5.45;;;1.20;99.90;;;;;;4911256;29;20036;-69
2022/12/29 01:53:05;;;;;;;8.57;5.63;;;1.20;99.90;;;;;;4905577;29;20459;-69
2022/12/29 01:55:35;;;;;;;8.05;5.72;;;1.20;99.90;;;;;;4912379;29;20839;-71
2022/12/29 01:58:04;;;;;;;11.85;7.03;;;1.20;99.90;;;;;;4911827;29;20086;-71
2022/12/29 02:00:30;;;;;;;11.23;6.78;;;1.30;99.90;;;;;;4911248;29;20138;-70
2022/12/29 02:02:56;;;;;;;11.48;7.38;;;1.40;99.90;;;;;;4914268;29;20123;-70
2022/12/29 02:05:28;;;;;;;10.82;6.82;;;1.50;99.90;;;;;;4909725;29;20529;-71
2022/12/29 02:07:53;;;;;;;;;;;1.60;99.90;;;;;;4909427;29;20102;-70
2022/12/29 02:10:21;;;;;;;12.40;7.45;;;1.50;99.90;;;;;;4909685;29;19915;-70
2022/12/29 02:12:47;;;;;;;11.38;6.95;;;1.50;99.90;;;;;;4912722;29;20106;-70
2022/12/29 02:15:14;;;;;;;7.63;5.60;;;1.50;99.90;;;;;;4913303;29;20055;-70
2022/12/29 02:18:15;;;;;;;7.90;5.70;;;1.50;99.90;;;;;;4909836;29;22868;-70
2022/12/29 02:20:55;;;;;;;9.90;6.65;;;1.50;99.90;;;;;;4898635;29;20292;-71
2022/12/29 02:23:43;;;;;;;11.38;7.00;;;1.40;99.90;;;;;;4904893;29;20142;-70
2022/12/29 02:26:35;;;;;;;12.40;7.70;;;1.50;99.90;;;;;;4910931;29;20066;-70
2022/12/29 02:29:37;;;;;;;9.70;6.53;;;1.60;99.90;;;;;;4895688;29;20044;-69
2022/12/29 02:32:13;;;;;;;11.05;6.30;;;1.50;99.90;;;;;;4900006;29;20047;-71
2022/12/29 02:34:44;;;;;;;9.65;6.65;;;1.50;99.90;;;;;;4898548;29;20087;-70
2022/12/29 02:37:43;;;;;;;11.98;7.40;;;1.40;99.90;;;;;;4912082;29;20047;-70
2022/12/29 02:40:17;;;;;;;12.65;7.40;;;1.30;99.90;;;;;;4898187;29;20039;-70
2022/12/29 02:43:22;;;;;;;13.82;7.15;;;1.40;99.90;;;;;;4912158;29;20063;-70
2022/12/29 02:45:59;;;;;;;12.52;7.28;;;1.30;99.90;;;;;;4894289;29;22025;-75
2022/12/29 02:48:40;;;;;;;9.85;5.72;;;1.30;99.90;;;;;;4917851;29;20035;-75
2022/12/29 02:51:31;;;;;;;9.70;6.10;;;1.20;99.90;;;;;;4920957;29;20036;-76
2022/12/29 02:56:42;;;;;;;11.90;6.32;;;0.90;99.90;;;;;;4915380;29;20263;-76
2022/12/29 02:59:09;;;;;;;9.27;6.38;;;1.00;99.90;;;;;;4910083;29;20051;-76
2022/12/29 03:02:16;;;;;;;11.55;6.30;;;1.10;99.90;;;;;;4914337;29;20035;-76
2022/12/29 03:05:19;;;;;;;10.75;6.53;;;1.10;99.90;;;;;;4912439;29;20051;-77
2022/12/29 03:08:05;;;;;;;10.65;7.03;;;1.00;99.90;;;;;;4908069;29;20036;-78
2022/12/29 03:10:45;;;;;;;13.48;7.00;;;1.10;99.90;;;;;;4911090;29;20039;-77
2022/12/29 03:17:09;;;;;;;12.10;7.13;;;1.00;99.90;;;;;;4912395;29;20054;-72
2022/12/29 03:19:47;;;;;;;8.40;6.03;;;1.00;99.90;;;;;;4903143;29;20171;-76
2022/12/29 03:22:27;;;;;;;10.77;7.22;;;0.90;99.90;;;;;;4903990;29;20117;-76
2022/12/29 03:24:58;;;;;;;14.48;7.95;;;0.80;99.90;;;;;;4910083;29;20048;-76
2022/12/29 03:27:28;;;;;;;14.90;8.07;;;0.90;99.90;;;;;;4909746;29;20569;-76
2022/12/29 03:30:02;;;;;;;13.18;7.72;;;0.90;99.90;;;;;;4909027;29;20054;-76
2022/12/29 03:32:51;;;;;;;13.00;7.38;;;1.00;99.90;;;;;;4908321;29;20078;-76
2022/12/29 03:35:20;;;;;;;14.02;8.57;;;0.90;99.90;;;;;;4907934;29;20086;-76
2022/12/29 03:37:55;;;;;;;12.05;7.90;;;0.70;99.90;;;;;;4906782;29;20032;-75
2022/12/29 03:40:22;;;;;;;16.13;9.25;;;0.70;99.90;;;;;;4908701;29;20716;-74
2022/12/29 03:42:48;;;;;;;12.43;8.32;;;0.70;99.90;;;;;;4906345;29;20040;-70
2022/12/29 03:45:14;;;;;;;12.35;7.93;;;0.70;99.90;;;;;;4905983;29;20040;-70
2022/12/29 03:47:40;;;;;;;10.00;6.85;;;0.70;99.90;;;;;;4908469;29;20101;-70
2022/12/29 03:50:08;;;;;;;11.63;7.40;;;0.70;99.90;;;;;;4897948;29;21091;-69
2022/12/29 03:52:34;;;;;;;7.93;5.90;;;0.60;99.90;;;;;;4900510;29;20500;-69
2022/12/29 03:54:59;;;;;;;9.82;5.82;;;0.60;99.90;;;;;;4900570;29;20055;-69
2022/12/29 03:57:25;;;;;;;10.00;6.45;;;0.50;99.90;;;;;;4910413;29;20039;-70
2022/12/29 03:59:50;;;;;;;12.73;7.22;;;0.40;99.90;;;;;;4897311;29;20114;-76
2022/12/29 04:02:16;;;;;;;9.32;6.25;;;0.40;99.90;;;;;;4904772;29;20599;-76
2022/12/29 04:04:42;;;;;;;8.93;6.50;;;0.40;99.90;;;;;;4899823;29;20409;-76
2022/12/29 04:07:07;;;;;;;10.82;6.95;;;0.50;99.90;;;;;;4902718;29;20408;-76
2022/12/29 04:09:33;;;;;;;11.10;7.43;;;0.50;99.90;;;;;;4893371;29;20037;-76
2022/12/29 04:11:59;;;;;;;12.93;7.28;;;0.50;99.90;;;;;;4904717;29;20055;-76
2022/12/29 04:14:24;;;;;;;13.18;7.68;;;0.50;99.90;;;;;;4901041;29;20082;-76
2022/12/29 04:16:50;;;;;;;9.57;6.47;;;0.60;99.90;;;;;;4895846;29;20043;-76
2022/12/29 04:19:15;;;;;;;9.38;6.18;;;0.60;99.90;;;;;;4901446;29;20114;-70
2022/12/29 04:21:41;;;;;;;9.50;6.82;;;0.50;99.90;;;;;;4900796;29;20066;-70
2022/12/29 04:24:07;;;;;;;12.40;7.65;;;0.50;99.90;;;;;;4899202;29;20067;-70
2022/12/29 04:26:33;;;;;;;14.82;8.35;;;0.50;99.90;;;;;;4902824;29;20032;-70
2022/12/29 04:28:59;;;;;;;9.35;6.00;;;0.50;99.90;;;;;;4900220;29;21331;-70
2022/12/29 04:31:24;;;;;;;11.35;6.05;;;0.50;99.90;;;;;;4906064;28;20044;-70
2022/12/29 04:33:50;;;;;;;12.73;6.50;;;0.50;99.90;;;;;;4915686;29;20043;-70
2022/12/29 04:36:16;;;;;;;9.43;6.38;;;0.50;99.90;;;;;;4909525;29;20679;-70
2022/12/29 04:38:41;;;;;;;10.65;6.70;;;0.50;99.90;;;;;;4908237;29;20483;-70
2022/12/29 04:41:07;;;;;;;12.55;8.95;;;0.50;99.90;;;;;;4903493;29;20050;-70
2022/12/29 04:43:33;;;;;;;15.80;9.63;;;0.60;99.90;;;;;;4905601;29;20072;-70
2022/12/29 04:45:58;;;;;;;19.75;11.20;;;0.70;99.90;;;;;;4912848;29;20028;-70
2022/12/29 04:48:24;;;;;;;19.00;11.13;;;0.70;99.90;;;;;;4904215;29;20056;-69
2022/12/29 04:50:50;;;;;;;20.23;12.32;;;0.70;99.90;;;;;;4907585;29;20079;-70
2022/12/29 04:53:16;;;;;;;21.40;11.80;;;0.70;99.90;;;;;;4905792;29;20579;-68
2022/12/29 04:55:42;;;;;;;14.85;10.25;;;0.70;99.90;;;;;;4912652;29;20441;-68
2022/12/29 04:58:08;;;;;;;10.18;6.32;;;0.60;99.90;;;;;;4911596;29;20088;-69
2022/12/29 05:00:34;;;;;;;9.32;5.88;;;0.60;99.90;;;;;;4913539;29;20150;-69
2022/12/29 05:03:00;;;;;;;11.05;6.57;;;0.70;99.90;;;;;;4911016;29;20401;-69
2022/12/29 05:05:26;;;;;;;10.40;6.13;;;0.70;99.90;;;;;;4912633;29;20050;-69
2022/12/29 05:07:52;;;;;;;10.00;6.25;;;0.60;99.90;;;;;;4908797;29;20044;-69
2022/12/29 05:10:17;;;;;;;8.43;6.13;;;0.50;99.90;;;;;;4906234;29;20409;-68
2022/12/29 05:12:43;;;;;;;9.27;5.85;;;0.50;99.90;;;;;;4907062;29;20508;-69
2022/12/29 05:15:11;;;;;;;11.23;7.30;;;0.50;99.90;;;;;;4908617;29;20024;-69
2022/12/29 05:17:36;;;;;;;17.75;11.68;;;0.60;99.90;;;;;;4913507;29;20127;-76
2022/12/29 05:20:03;;;;;;;12.35;9.18;;;0.70;99.90;;;;;;4896799;29;22198;-75
2022/12/29 05:22:29;;;;;;;18.90;11.75;;;0.70;99.90;;;;;;4907305;29;20043;-76
2022/12/29 05:24:54;;;;;;;25.05;15.05;;;0.80;99.90;;;;;;4911734;29;20170;-76
2022/12/29 05:27:20;;;;;;;30.83;18.10;;;0.90;99.90;;;;;;4911291;29;20509;-75
2022/12/29 05:29:46;;;;;;;31.70;17.73;;;1.00;99.90;;;;;;4914798;28;20036;-76
2022/12/29 05:32:11;;;;;;;15.73;10.75;;;1.10;99.90;;;;;;4904873;29;20039;-76
2022/12/29 05:34:37;;;;;;;13.60;8.38;;;1.10;99.90;;;;;;4902676;29;20039;-76
2022/12/29 05:37:03;;;;;;;11.27;7.15;;;1.00;99.90;;;;;;4914073;29;20389;-76
2022/12/29 05:39:29;;;;;;;10.93;6.90;;;0.90;99.90;;;;;;4914490;29;20036;-76
2022/12/29 05:41:54;;;;;;;12.68;7.38;;;0.80;99.90;;;;;;4905808;29;20043;-76
2022/12/29 05:44:20;;;;;;;15.25;6.60;;;0.70;99.90;;;;;;4899804;29;20429;-76
2022/12/29 05:46:46;;;;;;;14.02;9.48;;;0.60;99.90;;;;;;4908600;29;20092;-76
2022/12/29 05:49:11;;;;;;;14.07;8.77;;;0.70;99.90;;;;;;4909920;29;20260;-76
2022/12/29 05:51:37;;;;;;;11.98;8.52;;;0.60;99.90;;;;;;4905922;29;20028;-76
2022/12/29 05:54:03;;;;;;;17.00;10.65;;;0.60;99.90;;;;;;4911327;29;20518;-76
2022/12/29 05:56:28;;;;;;;22.45;14.32;;;0.60;99.90;;;;;;4908478;29;20036;-76
2022/12/29 05:58:54;;;;;;;28.40;15.93;;;0.50;99.90;;;;;;4901092;29;20048;-75
2022/12/29 06:01:20;;;;;;;25.67;14.10;;;0.50;99.90;;;;;;4907635;29;20064;-75
2022/12/29 06:03:45;;;;;;;19.75;11.27;;;0.60;99.90;;;;;;4907122;29;20079;-76
2022/12/29 06:06:12;;;;;;;18.58;12.02;;;0.50;99.90;;;;;;4911260;29;20055;-75
2022/12/29 06:08:38;;;;;;;21.85;12.93;;;0.60;99.90;;;;;;4911527;29;20549;-75
2022/12/29 06:11:04;;;;;;;23.58;14.23;;;0.60;99.90;;;;;;4912126;29;20039;-75
2022/12/29 06:13:29;;;;;;;25.42;15.57;;;0.60;99.90;;;;;;4898812;29;20036;-68
2022/12/29 06:15:55;;;;;;;36.90;20.40;;;0.60;99.90;;;;;;4911001;29;21016;-69
2022/12/29 06:18:20;;;;;;;54.65;29.10;;;0.60;99.90;;;;;;4907723;29;20106;-70
2022/12/29 06:20:46;;;;;;;40.58;21.05;;;0.60;99.90;;;;;;4905643;29;20044;-70
2022/12/29 06:23:13;;;;;;;32.80;17.13;;;0.60;99.90;;;;;;4910816;29;20138;-70
2022/12/29 06:25:39;;;;;;;16.58;10.18;;;0.60;99.90;;;;;;4911859;29;20049;-69
2022/12/29 06:28:07;;;;;;;17.58;11.40;;;0.50;99.90;;;;;;4906272;29;20183;-70
2022/12/29 06:30:33;;;;;;;27.95;15.43;;;0.50;99.90;;;;;;4907360;29;20070;-69
2022/12/29 06:32:59;;;;;;;26.25;16.23;;;0.40;99.90;;;;;;4910295;29;20504;-69
2022/12/29 06:35:25;;;;;;;26.25;14.50;;;0.40;99.90;;;;;;4898380;29;20032;-69
2022/12/29 06:37:50;;;;;;;22.30;13.02;;;0.30;99.90;;;;;;4909936;29;20127;-69
2022/12/29 06:40:16;;;;;;;24.30;15.75;;;0.30;99.90;;;;;;4908179;29;20031;-69
2022/12/29 06:42:42;;;;;;;28.95;16.42;;;0.40;99.90;;;;;;4900310;29;20075;-69
2022/12/29 06:45:08;;;;;;;26.35;15.40;;;0.40;99.90;;;;;;4910604;29;20070;-69
2022/12/29 06:47:34;;;;;;;26.63;15.05;;;0.50;99.90;;;;;;4907349;29;20042;-69
2022/12/29 06:50:00;;;;;;;27.33;16.40;;;0.40;99.90;;;;;;4904593;29;20044;-69
2022/12/29 06:52:28;;;;;;;28.08;16.63;;;0.40;99.90;;;;;;4904019;29;20051;-76
2022/12/29 06:54:54;;;;;;;29.30;16.50;;;0.40;99.90;;;;;;4914408;29;20504;-75
2022/12/29 06:57:20;;;;;;;28.98;15.75;;;0.50;99.90;;;;;;4909024;29;20050;-75
2022/12/29 06:59:45;;;;;;;25.02;15.57;;;0.50;99.90;;;;;;4908323;29;20074;-76
2022/12/29 07:02:11;;;;;;;26.05;14.95;;;0.60;99.90;;;;;;4895472;29;20035;-76
2022/12/29 07:04:37;;;;;;;30.67;17.25;;;0.60;99.90;;;;;;4902047;29;20090;-76
2022/12/29 07:07:03;;;;;;;54.08;27.65;;;0.70;99.90;;;;;;4910648;29;20035;-75
2022/12/29 07:09:28;;;;;;;66.28;32.25;;;0.60;99.90;;;;;;4906476;29;20142;-75
2022/12/29 07:11:54;;;;;;;42.58;22.88;;;0.60;99.90;;;;;;4902722;29;20036;-76
2022/12/29 07:14:20;;;;;;;16.50;9.80;;;0.60;99.90;;;;;;4911216;29;20047;-76
2022/12/29 07:16:45;;;;;;;13.60;8.38;;;0.60;99.90;;;;;;4906346;29;20122;-76
2022/12/29 07:19:11;;;;;;;14.57;9.18;;;0.60;99.90;;;;;;4902147;29;20040;-76
2022/12/29 07:21:36;;;;;;;12.95;8.52;;;0.50;99.90;;;;;;4908265;29;20040;-76
2022/12/29 07:24:02;;;;;;;13.57;8.02;;;0.50;99.90;;;;;;4910301;29;20090;-76
2022/12/29 07:26:28;;;;;;;10.60;7.72;;;0.50;99.90;;;;;;4902722;29;20075;-76
2022/12/29 07:28:55;;;;;;;14.75;9.93;;;0.50;99.90;;;;;;4911777;29;20040;-76
2022/12/29 07:31:23;;;;;;;18.95;11.05;;;0.60;99.90;;;;;;4892783;29;21276;-69
2022/12/29 07:33:49;;;;;;;21.20;13.15;;;0.70;99.90;;;;;;4908780;29;20575;-69
2022/12/29 07:36:17;;;;;;;21.10;14.68;;;0.80;99.90;;;;;;4911507;29;20052;-70
2022/12/29 07:38:43;;;;;;;24.10;15.90;;;0.90;99.90;;;;;;4906749;29;20739;-70
2022/12/29 07:41:08;;;;;;;14.82;9.68;;;1.00;99.90;;;;;;4908842;29;20027;-69
2022/12/29 07:43:34;;;;;;;14.65;8.05;;;1.00;99.90;;;;;;4907847;29;20055;-70
2022/12/29 07:46:00;;;;;;;13.23;7.93;;;1.00;99.90;;;;;;4909667;29;20036;-70
2022/12/29 07:48:26;;;;;;;15.82;8.98;;;1.10;99.90;;;;;;4908744;29;20404;-71
2022/12/29 07:50:52;;;;;;;12.90;8.30;;;1.10;99.90;;;;;;4914171;29;20044;-75
2022/12/29 07:53:18;;;;;;;12.27;8.75;;;1.10;99.90;;;;;;4910208;29;20035;-76
2022/12/29 07:55:44;;;;;;;10.35;7.43;;;1.10;99.90;;;;;;4905566;29;20544;-75
2022/12/29 07:58:09;;;;;;;11.23;7.57;;;1.20;99.90;;;;;;4911729;29;20039;-75
2022/12/29 08:00:35;;;;;;;12.32;8.07;;;1.30;99.90;;;;;;4902402;29;20534;-76
2022/12/29 08:03:01;;;;;;;12.55;7.90;;;1.30;99.90;;;;;;4898015;29;20053;-75
2022/12/29 08:05:27;;;;;;;13.60;8.82;;;1.40;99.90;;;;;;4896765;29;20072;-75
2022/12/29 08:07:52;;;;;;;14.48;9.15;;;1.40;99.90;;;;;;4913854;29;20051;-76
2022/12/29 08:10:18;;;;;;;17.55;10.70;;;1.50;99.90;;;;;;4902087;29;20031;-71
2022/12/29 08:12:44;;;;;;;18.25;11.38;;;1.60;99.90;;;;;;4910779;29;20505;-70
2022/12/29 08:15:11;;;;;;;20.15;13.63;;;1.70;99.90;;;;;;4911480;29;20070;-69
2022/12/29 08:17:37;;;;;;;20.88;13.57;;;1.90;99.90;;;;;;4909550;29;21823;-70
2022/12/29 08:20:04;;;;;;;20.70;12.98;;;2.00;99.90;;;;;;4909498;29;20052;-70
2022/12/29 08:22:30;;;;;;;18.83;13.98;;;2.10;99.90;;;;;;4908578;29;20040;-70
2022/12/29 08:24:56;;;;;;;24.67;18.10;;;2.10;99.90;;;;;;4909732;29;21781;-71
2022/12/29 08:27:22;;;;;;;28.80;17.20;;;2.30;99.90;;;;;;4911987;29;20389;-74
2022/12/29 08:29:48;;;;;;;23.83;17.33;;;2.30;99.90;;;;;;4916218;29;20024;-71
2022/12/29 08:32:14;;;;;;;20.55;14.60;;;2.40;99.90;;;;;;4912913;29;20140;-72
2022/12/29 08:34:39;;;;;;;19.17;13.68;;;2.50;99.90;;;;;;4891272;29;20062;-72
2022/12/29 08:37:05;;;;;;;20.05;14.70;;;2.50;99.90;;;;;;4889144;29;20035;-71
2022/12/29 08:39:31;;;;;;;19.70;14.07;;;2.50;99.90;;;;;;4908434;29;20032;-73
2022/12/29 08:41:56;;;;;;;20.27;14.55;;;2.60;99.90;;;;;;4897298;29;20584;-70
2022/12/29 08:44:22;;;;;;;20.40;13.75;;;2.70;99.90;;;;;;4911957;29;20148;-70
2022/12/29 08:46:48;;;;;;;20.45;14.10;;;2.80;99.90;;;;;;4900970;29;20499;-80
2022/12/29 08:49:14;;;;;;;22.70;14.60;;;2.90;99.90;;;;;;4905656;29;20119;-80
2022/12/29 08:51:40;;;;;;;20.42;14.45;;;2.90;99.90;;;;;;4899323;29;20074;-80
2022/12/29 08:54:05;;;;;;;21.30;14.05;;;2.90;99.90;;;;;;4907355;29;20099;-80
2022/12/29 08:56:31;;;;;;;17.77;12.70;;;3.00;99.90;;;;;;4913099;29;20634;-80
2022/12/29 08:58:57;;;;;;;17.77;13.20;;;3.10;99.90;;;;;;4896335;29;20572;-80
2022/12/29 09:01:23;;;;;;;38.10;13.68;;;3.10;99.90;;;;;;4904552;29;20424;-80
2022/12/29 09:03:48;;;;;;;20.42;13.02;;;3.20;99.90;;;;;;4902004;29;20051;-80
2022/12/29 09:06:16;;;;;;;17.45;12.70;;;3.40;99.90;;;;;;4904997;29;20043;-70
2022/12/29 09:08:43;;;;;;;16.98;12.75;;;3.60;99.90;;;;;;4901817;29;20040;-69
2022/12/29 09:11:10;;;;;;;16.05;12.27;;;3.60;99.90;;;;;;4905798;29;20043;-70
2022/12/29 09:13:36;;;;;;;18.67;12.95;;;3.70;99.90;;;;;;4900760;29;20042;-69
2022/12/29 09:16:02;;;;;;;18.05;13.68;;;3.70;99.90;;;;;;4904443;29;20036;-71
2022/12/29 09:18:28;;;;;;;17.60;12.93;;;3.60;99.90;;;;;;4908430;29;20044;-70
2022/12/29 09:20:58;;;;;;;16.38;12.18;;;3.60;99.90;;;;;;4909915;29;20158;-68
2022/12/29 09:23:24;;;;;;;19.27;12.82;;;3.70;99.90;;;;;;4908522;29;20066;-70
2022/12/29 09:25:50;;;;;;;17.13;12.93;;;3.80;99.90;;;;;;4907807;29;20564;-79
2022/12/29 09:28:15;;;;;;;16.40;12.65;;;3.70;99.90;;;;;;4899114;29;20071;-79
2022/12/29 09:30:41;;;;;;;16.15;12.40;;;3.60;99.90;;;;;;4907547;29;20083;-79
2022/12/29 09:33:07;;;;;;;18.55;12.52;;;3.70;99.90;;;;;;4901326;29;20091;-78
2022/12/29 09:35:32;;;;;;;17.02;12.75;;;3.70;99.90;;;;;;4913697;29;20043;-73
2022/12/29 09:37:58;;;;;;;17.42;12.10;;;3.70;99.90;;;;;;4917004;29;20036;-75
2022/12/29 09:40:29;;;;;;;15.63;13.02;;;3.70;99.90;;;;;;4908047;29;20044;-76
2022/12/29 09:43:22;;;;;;;21.77;13.93;;;3.70;99.90;;;;;;4900901;29;20120;-77
2022/12/29 09:46:09;;;;;;;22.02;17.52;;;3.80;99.90;;;;;;4907980;29;20048;-70
2022/12/29 09:48:40;;;;;;;17.98;13.25;;;3.70;99.90;;;;;;4902971;29;20868;-70
2022/12/29 09:51:12;;;;;;;16.17;12.40;;;3.80;99.90;;;;;;4905598;29;20032;-69
2022/12/29 09:53:47;;;;;;;21.48;14.30;;;4.00;99.90;;;;;;4900298;29;20038;-70
2022/12/29 09:56:23;;;;;;;16.52;13.10;;;4.10;99.90;;;;;;4888162;29;20044;-70
2022/12/29 09:59:16;;;;;;;19.17;13.15;;;4.10;99.90;;;;;;4902165;29;20067;-71
2022/12/29 10:02:06;;;;;;;14.27;12.20;;;4.00;99.90;;;;;;4905529;29;20142;-71
2022/12/29 10:04:31;;;;;;;20.98;12.80;;;4.00;99.90;;;;;;4898605;29;20052;-71
2022/12/29 10:07:10;;;;;;;17.08;12.18;;;4.00;99.90;;;;;;4910407;29;20047;-71
2022/12/29 10:09:56;;;;;;;17.08;13.60;;;4.00;99.90;;;;;;4886850;29;20090;-70
2022/12/29 10:12:56;;;;;;;16.63;12.60;;;4.00;99.90;;;;;;4911037;29;20040;-70
2022/12/29 10:15:44;;;;;;;20.55;13.38;;;4.00;99.90;;;;;;4894492;29;20056;-70
2022/12/29 10:18:25;;;;;;;21.05;13.68;;;4.00;99.90;;;;;;4905783;29;20357;-71
2022/12/29 10:21:12;;;;;;;17.77;13.90;;;3.90;99.90;;;;;;4885057;29;20048;-71
2022/12/29 10:23:50;;;;;;;20.48;13.18;;;3.90;99.90;;;;;;4905510;29;20412;-78
2022/12/29 10:26:23;;;;;;;21.48;12.73;;;3.90;99.90;;;;;;4902080;29;20621;-78
2022/12/29 10:29:03;;;;;;;22.98;14.95;;;4.00;99.90;;;;;;4907052;29;20095;-79
2022/12/29 10:31:41;;;;;;;25.98;16.30;;;4.10;99.90;;;;;;4900449;29;20043;-78
2022/12/29 10:34:33;;;;;;;20.85;13.30;;;4.20;99.90;;;;;;4905019;29;20088;-79
2022/12/29 10:37:21;;;;;;;;;;;4.30;99.90;;;;;;4890045;29;20045;-78
2022/12/29 10:39:53;;;;;;;18.27;13.18;;;4.40;99.90;;;;;;4889669;29;21159;-78
2022/12/29 10:42:21;;;;;;;20.30;12.93;;;4.30;99.90;;;;;;4906061;29;20542;-71
2022/12/29 10:44:47;;;;;;;26.25;18.27;;;4.30;99.90;;;;;;4906077;29;20724;-71
2022/12/29 10:47:21;;;;;;;19.70;13.80;;;4.30;99.90;;;;;;4907746;29;20050;-71
2022/12/29 10:49:48;;;;;;;18.92;13.95;;;4.40;99.90;;;;;;4903268;29;20469;-71
2022/12/29 10:52:17;;;;;;;17.75;12.85;;;4.40;99.90;;;;;;4889000;29;20040;-71
2022/12/29 10:55:00;;;;;;;18.00;13.80;;;4.40;99.90;;;;;;4901810;29;20059;-71
2022/12/29 10:57:44;;;;;;;18.00;14.48;;;4.40;99.90;;;;;;4905229;29;20048;-71
2022/12/29 11:00:20;;;;;;;22.15;14.88;;;4.40;99.90;;;;;;4902949;29;20556;-71
2022/12/29 11:02:55;;;;;;;18.67;13.48;;;4.50;99.90;;;;;;4902070;29;20079;-71
2022/12/29 11:05:35;;;;;;;16.70;13.70;;;4.60;99.90;;;;;;4894416;29;20099;-71
2022/12/29 11:08:15;;;;;;;19.65;14.00;;;4.60;99.90;;;;;;4913585;29;20036;-71
2022/12/29 11:10:43;;;;;;;24.40;16.98;;;4.60;99.90;;;;;;4906194;29;20515;-71
2022/12/29 11:13:24;;;;;;;22.75;17.05;;;4.60;99.90;;;;;;4897251;29;20528;-71
2022/12/29 11:15:51;;;;;;;18.92;14.25;;;4.70;99.90;;;;;;4911055;29;20031;-71
2022/12/29 11:18:31;;;;;;;16.75;14.50;;;4.80;99.90;;;;;;4897812;29;20426;-70
2022/12/29 11:21:00;;;;;;;17.08;13.10;;;4.80;99.90;;;;;;4897983;29;20043;-71
2022/12/29 11:23:33;;;;;;;19.58;14.02;;;4.80;99.90;;;;;;4889018;29;20174;-72
2022/12/29 11:26:21;;;;;;;23.38;14.48;;;4.90;99.90;;;;;;4902471;29;20048;-71
2022/12/29 11:29:07;;;;;;;20.48;13.43;;;4.90;99.90;;;;;;4893789;29;20035;-72
2022/12/29 11:31:42;;;;;;;50.53;37.47;;;4.90;99.90;;;;;;4873176;29;20100;-72
2022/12/29 11:34:08;;;;;;;23.10;19.38;;;4.90;99.90;;;;;;4899450;29;20063;-72
2022/12/29 11:36:35;;;;;;;25.17;13.98;;;4.90;99.90;;;;;;4910315;29;20031;-72
2022/12/29 11:39:01;;;;;;;18.48;13.77;;;4.90;99.90;;;;;;4908497;29;20040;-79
2022/12/29 11:41:31;;;;;;;17.63;13.93;;;5.00;99.90;;;;;;4904029;29;20389;-79
2022/12/29 11:44:05;;;;;;;19.33;14.43;;;5.00;99.90;;;;;;4911650;29;20071;-79
2022/12/29 11:46:38;;;;;;;18.40;13.73;;;5.00;99.90;;;;;;4900264;29;20310;-80
2022/12/29 11:49:04;;;;;;;16.55;13.68;;;5.10;99.90;;;;;;4909422;29;20043;-79
2022/12/29 11:51:50;;;;;;;21.75;15.65;;;5.20;99.90;;;;;;4902596;29;20744;-79
2022/12/29 11:54:23;;;;;;;17.80;14.77;;;5.20;99.90;;;;;;4891698;29;20050;-79
2022/12/29 11:56:49;;;;;;;21.02;15.80;;;5.20;99.90;;;;;;4905958;29;20067;-72
2022/12/29 11:59:37;;;;;;;19.98;15.05;;;5.30;99.90;;;;;;4903531;29;20062;-79
2022/12/29 12:02:20;;;;;;;21.58;15.73;;;5.30;99.90;;;;;;4907214;29;20684;-80
2022/12/29 12:04:49;;;;;;;19.70;15.18;;;5.30;99.90;;;;;;4895848;29;20198;-80
2022/12/29 12:07:24;;;;;;;48.67;37.40;;;5.20;99.90;;;;;;4918471;29;20121;-80
2022/12/29 12:10:03;;;;;;;22.20;16.60;;;5.20;99.90;;;;;;4922766;29;20051;-81
2022/12/29 12:12:34;;;;;;;17.55;14.32;;;5.20;99.90;;;;;;4917683;29;20126;-81
2022/12/29 12:15:05;;;;;;;19.58;15.05;;;5.20;99.90;;;;;;4897737;29;20774;-79
2022/12/29 12:17:40;;;;;;;17.67;13.68;;;5.20;99.90;;;;;;4914347;29;20050;-80
2022/12/29 12:20:38;;;;;;;18.38;14.07;;;5.30;99.90;;;;;;4925866;29;20298;-81
2022/12/29 12:23:28;;;;;;;19.10;13.85;;;5.40;99.90;;;;;;4893749;29;20067;-81
2022/12/29 12:26:16;;;;;;;19.63;14.02;;;5.50;99.90;;;;;;4905011;29;20061;-82
2022/12/29 12:29:01;;;;;;;18.63;13.88;;;5.40;99.90;;;;;;4900843;29;20687;-81
2022/12/29 12:31:47;;;;;;;27.85;21.75;;;5.50;99.90;;;;;;4911754;29;20047;-73
2022/12/29 12:34:22;;;;;;;20.98;14.10;;;5.40;99.90;;;;;;4909028;29;20048;-74
2022/12/29 12:37:05;;;;;;;20.80;14.48;;;5.40;99.90;;;;;;4912864;29;20039;-75
2022/12/29 12:39:50;;;;;;;19.83;14.43;;;5.40;99.90;;;;;;4917736;29;20032;-74
2022/12/29 12:42:42;;;;;;;17.30;13.75;;;5.60;99.90;;;;;;4912250;29;20074;-73
2022/12/29 12:45:20;;;;;;;33.55;24.33;;;5.60;99.90;;;;;;4898729;29;20051;-73
2022/12/29 12:48:10;;;;;;;19.90;13.05;;;5.70;99.90;;;;;;4898689;29;20151;-73
2022/12/29 12:50:55;;;;;;;16.30;12.38;;;5.70;99.90;;;;;;4903210;29;20043;-73
2022/12/29 12:53:55;;;;;;;17.48;13.55;;;5.70;99.90;;;;;;4906361;29;20057;-74
2022/12/29 12:56:29;;;;;;;17.73;12.48;;;5.70;99.90;;;;;;4903910;29;20485;-74
2022/12/29 12:59:04;;;;;;;17.13;12.35;;;5.80;99.90;;;;;;4904622;29;20035;-73
2022/12/29 13:01:44;;;;;;;22.88;16.13;;;5.80;99.90;;;;;;4891145;29;20056;-73
2022/12/29 13:04:25;;;;;;;19.15;13.00;;;5.90;99.90;;;;;;4875275;29;20049;-74
2022/12/29 13:07:15;;;;;;;17.05;13.02;;;5.90;99.90;;;;;;4887784;29;20123;-70
2022/12/29 13:10:20;;;;;;;22.65;13.77;;;6.00;99.90;;;;;;4882299;29;20496;-69
2022/12/29 13:12:54;;;;;;;17.15;11.63;;;6.00;99.90;;;;;;4875116;29;20047;-69
2022/12/29 13:15:25;;;;;;;17.67;11.63;;;6.10;99.90;;;;;;4882378;29;20047;-66
2022/12/29 13:18:02;;;;;;;18.38;12.90;;;6.10;99.90;;;;;;4882054;29;20047;-68
2022/12/29 13:20:42;;;;;;;16.45;11.18;;;6.00;99.90;;;;;;4885197;29;20131;-67
2022/12/29 13:23:13;;;;;;;13.63;10.82;;;5.90;99.90;;;;;;4880967;29;20172;-67
2022/12/29 13:25:57;;;;;;;16.45;10.85;;;6.00;99.90;;;;;;4874570;29;20497;-67
2022/12/29 13:28:33;;;;;;;14.93;11.60;;;6.10;99.90;;;;;;4866130;29;20080;-68
2022/12/29 13:31:10;;;;;;;17.67;12.32;;;6.10;99.90;;;;;;4879132;29;20040;-68
2022/12/29 13:33:59;;;;;;;19.27;11.75;;;6.10;99.90;;;;;;4865906;29;20049;-67
2022/12/29 13:36:42;;;;;;;17.08;11.50;;;6.30;99.90;;;;;;4872938;29;20039;-68
2022/12/29 13:39:20;;;;;;;16.23;11.57;;;6.50;99.90;;;;;;4877140;29;20213;-68